createdAt,value
2018-06-07T00:00:56.617Z,5.40
2018-06-07T00:03:24.848Z,4.87
2018-06-07T00:05:53.242Z,5.30
2018-06-07T00:08:21.480Z,5.47
2018-06-07T00:10:49.825Z,5.27
2018-06-07T00:13:18.234Z,5.97
2018-06-07T00:15:46.510Z,5.60
2018-06-07T00:18:14.783Z,5.03
2018-06-07T00:20:43.059Z,6.00
2018-06-07T00:23:11.441Z,5.47
2018-06-07T00:25:39.686Z,5.63
2018-06-07T00:28:07.983Z,5.70
2018-06-07T00:30:36.189Z,5.50
2018-06-07T00:33:04.442Z,5.20
2018-06-07T00:35:38.105Z,6.10
2018-06-07T00:38:06.476Z,5.23
2018-06-07T00:40:34.780Z,5.23
2018-06-07T00:43:03.037Z,5.47
2018-06-07T00:45:31.307Z,5.10
2018-06-07T00:47:59.639Z,5.50
2018-06-07T00:50:28.243Z,5.77
2018-06-07T00:52:56.514Z,4.67
2018-06-07T00:55:24.773Z,5.30
2018-06-07T00:57:53.545Z,5.53
2018-06-07T01:00:21.837Z,5.63
2018-06-07T01:02:50.139Z,4.70
2018-06-07T01:05:18.369Z,5.20
2018-06-07T01:07:46.643Z,5.27
2018-06-07T01:10:14.927Z,5.00
2018-06-07T01:12:43.184Z,5.87
2018-06-07T01:15:11.448Z,5.20
2018-06-07T01:17:39.696Z,4.87
2018-06-07T01:20:07.941Z,5.17
2018-06-07T01:22:36.163Z,5.50
2018-06-07T01:25:04.747Z,5.73
2018-06-07T01:27:38.494Z,5.00
2018-06-07T01:30:23.500Z,5.50
2018-06-07T01:33:08.614Z,4.87
2018-06-07T01:35:36.945Z,5.47
2018-06-07T01:38:16.756Z,5.20
2018-06-07T01:40:44.979Z,5.40
2018-06-07T01:43:13.194Z,5.60
2018-06-07T01:45:41.473Z,5.40
2018-06-07T01:48:09.728Z,5.63
2018-06-07T01:50:37.926Z,5.47
2018-06-07T01:53:06.197Z,5.67
2018-06-07T01:55:34.461Z,5.13
2018-06-07T01:58:03.179Z,5.47
2018-06-07T02:00:31.435Z,5.30
2018-06-07T02:02:59.674Z,5.27
2018-06-07T02:05:28.130Z,4.97
2018-06-07T02:07:56.418Z,5.40
2018-06-07T02:10:24.690Z,5.10
2018-06-07T02:12:52.926Z,5.23
2018-06-07T02:15:21.175Z,5.00
2018-06-07T02:17:49.461Z,5.77
2018-06-07T02:20:17.677Z,5.57
2018-06-07T02:22:45.920Z,6.70
2018-06-07T02:25:14.161Z,6.30
2018-06-07T02:27:42.437Z,4.70
2018-06-07T02:30:10.686Z,6.37
2018-06-07T02:32:38.989Z,5.50
2018-06-07T02:35:07.251Z,6.17
2018-06-07T02:37:35.549Z,6.10
2018-06-07T02:40:04.733Z,6.43
2018-06-07T02:42:32.940Z,5.47
2018-06-07T02:45:01.186Z,6.20
2018-06-07T02:47:29.440Z,5.50
2018-06-07T02:49:57.671Z,5.87
2018-06-07T02:52:25.897Z,6.00
2018-06-07T02:54:54.199Z,5.10
2018-06-07T02:57:22.512Z,5.83
2018-06-07T02:59:50.765Z,5.53
2018-06-07T03:02:19.015Z,5.33
2018-06-07T03:04:47.252Z,5.93
2018-06-07T03:07:15.490Z,5.43
2018-06-07T03:09:43.717Z,5.60
2018-06-07T03:12:12.028Z,5.10
2018-06-07T03:14:40.820Z,5.30
2018-06-07T03:17:09.035Z,5.53
2018-06-07T03:19:37.265Z,4.93
2018-06-07T03:22:05.534Z,4.80
2018-06-07T03:24:33.732Z,5.23
2018-06-07T03:27:02.014Z,5.47
2018-06-07T03:29:30.983Z,5.47
2018-06-07T03:31:59.249Z,5.20
2018-06-07T03:34:27.452Z,5.57
2018-06-07T03:36:55.722Z,5.73
2018-06-07T03:39:23.991Z,4.73
2018-06-07T03:41:52.234Z,5.17
2018-06-07T03:44:20.551Z,5.77
2018-06-07T03:46:48.750Z,5.20
2018-06-07T03:49:16.975Z,4.93
2018-06-07T03:51:45.296Z,5.13
2018-06-07T03:56:48.154Z,4.57
2018-06-07T03:59:16.422Z,4.97
2018-06-07T04:01:44.722Z,4.43
2018-06-07T04:04:12.946Z,4.60
2018-06-07T04:06:41.173Z,4.63
2018-06-07T04:09:09.411Z,3.97
2018-06-07T04:11:37.623Z,4.03
2018-06-07T04:14:05.887Z,4.70
2018-06-07T04:16:34.192Z,4.13
2018-06-07T04:19:02.430Z,4.17
2018-06-07T04:21:30.693Z,4.30
2018-06-07T04:23:58.938Z,3.67
2018-06-07T04:26:27.187Z,3.97
2018-06-07T04:28:55.437Z,3.90
2018-06-07T04:31:23.658Z,4.10
2018-06-07T04:33:51.951Z,3.97
2018-06-07T04:36:20.231Z,4.27
2018-06-07T04:38:48.482Z,4.30
2018-06-07T04:41:17.098Z,4.17
2018-06-07T04:43:45.357Z,3.50
2018-06-07T04:46:13.562Z,3.70
2018-06-07T04:48:41.902Z,3.27
2018-06-07T04:51:10.642Z,3.90
2018-06-07T04:53:38.846Z,4.17
2018-06-07T04:56:07.067Z,3.30
2018-06-07T04:58:35.336Z,3.53
2018-06-07T05:01:03.726Z,3.43
2018-06-07T05:03:32.161Z,3.17
2018-06-07T05:06:00.389Z,3.67
2018-06-07T05:08:28.607Z,3.20
2018-06-07T05:10:56.854Z,2.43
2018-06-07T05:13:25.060Z,2.57
2018-06-07T05:15:53.300Z,2.30
2018-06-07T05:18:21.563Z,2.90
2018-06-07T05:20:49.802Z,2.60
2018-06-07T05:23:18.029Z,2.73
2018-06-07T05:25:46.541Z,2.40
2018-06-07T05:28:14.768Z,2.37
2018-06-07T05:30:43.645Z,2.10
2018-06-07T05:33:11.873Z,2.07
2018-06-07T05:35:40.046Z,1.93
2018-06-07T05:38:08.315Z,2.00
2018-06-07T05:40:36.537Z,2.00
2018-06-07T05:43:04.814Z,1.70
2018-06-07T05:45:33.037Z,2.03
2018-06-07T05:48:01.337Z,1.80
2018-06-07T05:50:29.527Z,2.13
2018-06-07T05:52:57.750Z,2.10
2018-06-07T05:55:25.935Z,2.40
2018-06-07T05:57:54.236Z,2.07
2018-06-07T06:00:22.465Z,1.90
2018-06-07T06:02:50.742Z,2.00
2018-06-07T06:05:18.964Z,2.20
2018-06-07T06:07:47.189Z,2.23
2018-06-07T06:10:15.498Z,2.00
2018-06-07T06:12:43.712Z,1.90
2018-06-07T06:15:11.948Z,2.00
2018-06-07T06:17:40.173Z,1.70
2018-06-07T06:20:08.731Z,2.10
2018-06-07T06:22:36.971Z,1.83
2018-06-07T06:25:04.977Z,1.70
2018-06-07T06:27:33.175Z,1.60
2018-06-07T06:30:01.442Z,1.90
2018-06-07T06:32:29.657Z,1.90
2018-06-07T06:34:57.877Z,1.97
2018-06-07T06:38:31.377Z,1.70
2018-06-07T06:41:00.121Z,1.40
2018-06-07T06:43:28.451Z,1.60
2018-06-07T06:45:56.714Z,1.80
2018-06-07T06:48:25.015Z,2.23
2018-06-07T06:50:53.365Z,1.60
2018-06-07T06:53:21.580Z,1.83
2018-06-07T06:55:49.884Z,2.20
2018-06-07T06:58:18.120Z,1.90
2018-06-07T07:00:46.350Z,1.73
2018-06-07T07:03:14.655Z,2.00
2018-06-07T07:05:42.935Z,1.73
2018-06-07T07:08:11.195Z,2.00
2018-06-07T07:10:39.503Z,1.70
2018-06-07T07:13:07.936Z,1.63
2018-06-07T07:15:36.488Z,2.13
2018-06-07T07:18:04.943Z,1.80
2018-06-07T07:20:33.166Z,1.93
2018-06-07T07:23:01.379Z,2.00
2018-06-07T07:25:29.637Z,2.03
2018-06-07T07:27:57.983Z,1.80
2018-06-07T07:30:26.364Z,1.80
2018-06-07T07:32:54.654Z,1.70
2018-06-07T07:35:22.938Z,1.80
2018-06-07T07:37:51.230Z,1.80
2018-06-07T07:40:19.533Z,2.00
2018-06-07T07:42:47.782Z,1.63
2018-06-07T07:45:16.059Z,1.70
2018-06-07T07:47:44.311Z,1.67
2018-06-07T07:50:12.598Z,1.80
2018-06-07T07:52:40.832Z,1.73
2018-06-07T07:55:10.780Z,1.73
2018-06-07T07:57:39.392Z,2.67
2018-06-07T08:00:08.032Z,2.10
2018-06-07T08:02:36.342Z,2.17
2018-06-07T08:05:04.939Z,1.90
2018-06-07T08:07:33.237Z,2.00
2018-06-07T08:10:01.512Z,1.77
2018-06-07T08:12:29.971Z,2.97
2018-06-07T08:14:58.212Z,2.87
2018-06-07T08:17:26.494Z,2.53
2018-06-07T08:19:54.501Z,2.10
2018-06-07T08:22:22.749Z,2.60
2018-06-07T08:24:51.173Z,2.33
2018-06-07T08:27:19.588Z,2.40
2018-06-07T08:29:47.922Z,2.00
2018-06-07T08:32:16.150Z,2.27
2018-06-07T08:34:44.539Z,1.92
2018-06-07T08:37:12.856Z,2.40
2018-06-07T08:39:41.157Z,2.37
2018-06-07T08:42:09.456Z,2.75
2018-06-07T08:44:37.811Z,3.22
2018-06-07T08:47:06.373Z,3.55
2018-06-07T08:49:34.662Z,2.70
2018-06-07T08:52:03.010Z,3.00
2018-06-07T08:54:31.410Z,4.67
2018-06-07T08:57:00.173Z,3.12
2018-06-07T08:59:28.565Z,2.70
2018-06-07T09:01:57.269Z,2.83
2018-06-07T09:04:25.596Z,2.55
2018-06-07T09:06:54.177Z,3.17
2018-06-07T09:09:22.222Z,3.00
2018-06-07T09:11:50.567Z,3.22
2018-06-07T09:14:18.947Z,3.52
2018-06-07T09:16:47.257Z,3.37
2018-06-07T09:19:15.556Z,3.02
2018-06-07T09:21:43.855Z,2.90
2018-06-07T09:24:12.266Z,2.75
2018-06-07T09:26:40.637Z,3.30
2018-06-07T09:29:09.466Z,2.70
2018-06-07T09:31:37.765Z,2.85
2018-06-07T09:34:06.163Z,3.12
2018-06-07T09:36:34.503Z,3.22
2018-06-07T09:39:02.892Z,3.12
2018-06-07T09:41:31.203Z,3.87
2018-06-07T09:43:59.425Z,4.15
2018-06-07T09:46:27.888Z,3.83
2018-06-07T09:48:56.365Z,3.27
2018-06-07T09:51:24.720Z,3.50
2018-06-07T09:53:53.026Z,2.87
2018-06-07T09:56:21.424Z,3.02
2018-06-07T09:58:49.859Z,3.50
2018-06-07T10:01:18.111Z,3.37
2018-06-07T10:03:47.133Z,3.05
2018-06-07T10:06:15.394Z,3.52
2018-06-07T10:08:43.702Z,3.30
2018-06-07T10:11:12.106Z,3.10
2018-06-07T10:13:40.354Z,3.30
2018-06-07T10:16:08.797Z,3.25
2018-06-07T10:18:37.289Z,3.10
2018-06-07T10:21:05.562Z,2.92
2018-06-07T10:23:33.858Z,3.95
2018-06-07T10:26:02.121Z,4.95
2018-06-07T10:28:30.525Z,4.67
2018-06-07T10:30:58.805Z,4.20
2018-06-07T10:33:27.070Z,3.83
2018-06-07T10:35:55.383Z,3.55
2018-06-07T10:38:23.684Z,3.83
2018-06-07T10:40:52.015Z,4.25
2018-06-07T10:43:20.360Z,3.72
2018-06-07T10:45:48.686Z,3.90
2018-06-07T10:48:16.941Z,4.03
2018-06-07T10:50:45.347Z,4.45
2018-06-07T10:53:14.253Z,4.00
2018-06-07T10:55:42.458Z,4.25
2018-06-07T10:58:10.742Z,3.33
2018-06-07T11:00:39.058Z,3.60
2018-06-07T11:03:07.361Z,3.58
2018-06-07T11:05:35.389Z,3.12
2018-06-07T11:08:03.856Z,4.35
2018-06-07T11:10:32.106Z,3.52
2018-06-07T11:13:00.423Z,3.33
2018-06-07T11:15:28.689Z,4.00
2018-06-07T11:17:57.062Z,3.62
2018-06-07T11:20:25.310Z,3.87
2018-06-07T11:22:53.558Z,4.00
2018-06-07T11:25:21.798Z,4.20
2018-06-07T11:27:50.180Z,3.87
2018-06-07T11:30:18.473Z,3.85
2018-06-07T11:32:46.734Z,4.40
2018-06-07T11:35:15.031Z,3.87
2018-06-07T11:37:43.533Z,3.40
2018-06-07T11:40:11.770Z,4.50
2018-06-07T11:42:40.042Z,4.08
2018-06-07T11:45:08.309Z,4.00
2018-06-07T11:47:36.602Z,4.20
2018-06-07T11:50:04.876Z,3.95
2018-06-07T11:52:33.276Z,3.98
2018-06-07T11:55:02.940Z,3.80
2018-06-07T11:57:31.350Z,4.17
2018-06-07T11:59:59.609Z,4.17
2018-06-07T12:02:27.864Z,4.40
2018-06-07T12:04:56.097Z,4.33
2018-06-07T12:07:24.418Z,4.10
2018-06-07T12:09:53.027Z,3.80
2018-06-07T12:12:21.315Z,3.83
2018-06-07T12:14:49.549Z,3.97
2018-06-07T12:17:17.934Z,4.17
2018-06-07T12:19:46.206Z,4.23
2018-06-07T12:22:15.104Z,3.73
2018-06-07T12:24:43.324Z,4.20
2018-06-07T12:27:11.601Z,4.20
2018-06-07T12:29:39.909Z,4.10
2018-06-07T12:32:08.268Z,4.00
2018-06-07T12:34:36.429Z,4.30
2018-06-07T12:37:04.845Z,4.63
2018-06-07T12:39:33.134Z,3.97
2018-06-07T12:42:01.394Z,3.37
2018-06-07T12:44:29.646Z,3.30
2018-06-07T12:46:58.010Z,2.90
2018-06-07T12:49:26.230Z,2.90
2018-06-07T12:51:54.498Z,2.80
2018-06-07T12:54:22.768Z,3.13
2018-06-07T12:56:51.643Z,3.40
2018-06-07T12:59:19.880Z,3.07
2018-06-07T13:01:48.128Z,3.33
2018-06-07T13:04:16.459Z,4.13
2018-06-07T13:06:44.726Z,3.60
2018-06-07T13:09:13.111Z,4.07
2018-06-07T13:11:41.338Z,3.50
2018-06-07T13:14:10.209Z,3.50
2018-06-07T13:16:38.471Z,3.30
2018-06-07T13:19:06.742Z,3.33
2018-06-07T13:21:35.056Z,3.50
2018-06-07T13:24:03.413Z,3.67
2018-06-07T13:26:31.757Z,3.60
2018-06-07T13:29:00.052Z,3.67
2018-06-07T13:31:28.289Z,3.83
2018-06-07T13:33:56.548Z,4.10
2018-06-07T13:36:24.790Z,4.30
2018-06-07T13:38:54.899Z,4.30
2018-06-07T13:41:23.258Z,4.00
2018-06-07T13:43:51.558Z,4.50
2018-06-07T13:46:19.823Z,4.50
2018-06-07T13:48:48.342Z,4.60
2018-06-07T13:51:16.640Z,4.83
2018-06-07T13:53:44.943Z,5.20
2018-06-07T13:56:13.350Z,4.33
2018-06-07T13:58:41.647Z,4.27
2018-06-07T14:01:10.014Z,4.13
2018-06-07T14:03:38.289Z,3.73
2018-06-07T14:06:08.008Z,4.20
2018-06-07T14:08:36.278Z,4.75
2018-06-07T14:11:04.562Z,4.33
2018-06-07T14:13:33.014Z,4.53
2018-06-07T14:16:01.290Z,4.60
2018-06-07T14:18:29.578Z,5.03
2018-06-07T14:20:57.849Z,4.93
2018-06-07T14:23:26.184Z,4.13
2018-06-07T14:25:54.460Z,4.80
2018-06-07T14:28:22.776Z,4.47
2018-06-07T14:30:51.158Z,4.93
2018-06-07T14:33:19.407Z,4.70
2018-06-07T14:35:47.660Z,4.67
2018-06-07T14:38:15.881Z,4.67
2018-06-07T14:40:44.083Z,4.80
2018-06-07T14:43:12.461Z,5.30
2018-06-07T14:45:40.764Z,5.47
2018-06-07T14:48:09.083Z,5.27
2018-06-07T14:50:37.322Z,5.40
2018-06-07T14:53:05.546Z,6.13
2018-06-07T14:55:33.787Z,5.63
2018-06-07T14:58:02.041Z,6.30
2018-06-07T15:00:30.462Z,5.43
2018-06-07T15:02:58.792Z,5.57
2018-06-07T15:05:27.063Z,6.37
2018-06-07T15:07:55.308Z,6.03
2018-06-07T15:10:23.630Z,6.60
2018-06-07T15:12:51.896Z,5.90
2018-06-07T15:15:20.182Z,6.37
2018-06-07T15:17:48.385Z,5.60
2018-06-07T15:20:16.675Z,6.07
2018-06-07T15:22:44.879Z,5.70
2018-06-07T15:25:13.210Z,6.07
2018-06-07T15:27:41.479Z,6.60
2018-06-07T15:30:09.779Z,6.13
2018-06-07T15:32:38.112Z,6.23
2018-06-07T15:35:06.451Z,6.07
2018-06-07T15:37:34.759Z,6.07
2018-06-07T15:40:03.116Z,5.07
2018-06-07T15:42:31.411Z,5.57
2018-06-07T15:44:59.730Z,4.90
2018-06-07T15:47:27.966Z,5.17
2018-06-07T15:49:56.170Z,5.20
2018-06-07T15:52:24.427Z,5.00
2018-06-07T15:54:53.115Z,5.00
2018-06-07T15:57:21.395Z,4.63
2018-06-07T15:59:49.662Z,2.90
2018-06-07T16:02:17.950Z,3.00
2018-06-07T16:04:46.333Z,2.87
2018-06-07T16:07:15.133Z,2.43
2018-06-07T16:09:43.489Z,2.70
2018-06-07T16:12:11.812Z,3.27
2018-06-07T16:14:40.091Z,2.80
2018-06-07T16:17:08.400Z,3.37
2018-06-07T16:19:36.708Z,3.73
2018-06-07T16:22:05.044Z,3.40
2018-06-07T16:24:33.312Z,3.97
2018-06-07T16:27:01.727Z,3.90
2018-06-07T16:29:30.085Z,4.73
2018-06-07T16:31:58.161Z,3.40
2018-06-07T16:34:26.996Z,3.50
2018-06-07T16:36:56.226Z,3.53
2018-06-07T16:39:24.452Z,3.73
2018-06-07T16:41:53.022Z,3.93
2018-06-07T16:44:21.379Z,4.53
2018-06-07T16:46:49.702Z,4.77
2018-06-07T16:49:17.954Z,5.03
2018-06-07T16:51:46.299Z,4.60
2018-06-07T16:54:14.662Z,4.80
2018-06-07T16:56:43.034Z,5.53
2018-06-07T16:59:11.319Z,5.80
2018-06-07T17:01:39.650Z,5.50
2018-06-07T17:04:07.939Z,4.40
2018-06-07T17:06:36.934Z,4.60
2018-06-07T17:09:09.157Z,4.90
2018-06-07T17:11:37.541Z,4.67
2018-06-07T17:14:06.339Z,4.77
2018-06-07T17:16:34.798Z,4.47
2018-06-07T17:19:03.073Z,6.03
2018-06-07T17:21:31.582Z,5.50
2018-06-07T17:23:59.899Z,4.80
2018-06-07T17:26:30.043Z,4.80
2018-06-07T17:28:58.549Z,4.87
2018-06-07T17:31:27.005Z,5.50
2018-06-07T17:33:56.046Z,4.20
2018-06-07T17:36:24.369Z,3.27
2018-06-07T17:38:52.673Z,3.27
2018-06-07T17:41:22.562Z,4.13
2018-06-07T17:43:57.749Z,3.90
2018-06-07T17:46:26.876Z,4.63
2018-06-07T17:48:55.431Z,3.80
2018-06-07T17:51:23.991Z,3.50
2018-06-07T17:53:52.453Z,3.47
2018-06-07T17:56:21.362Z,3.17
2018-06-07T17:58:50.394Z,3.47
2018-06-07T18:01:19.546Z,3.23
2018-06-07T18:03:52.756Z,4.30
2018-06-07T18:08:53.878Z,4.60
2018-06-07T18:11:22.818Z,4.17
2018-06-07T18:13:52.046Z,4.00
2018-06-07T18:16:20.302Z,5.07
2018-06-07T18:18:48.687Z,7.23
2018-06-07T18:21:17.112Z,5.10
2018-06-07T18:23:45.453Z,10.40
2018-06-07T18:26:13.813Z,5.20
2018-06-07T18:28:42.207Z,6.37
2018-06-07T18:31:10.692Z,6.07
2018-06-07T18:33:39.297Z,9.10
2018-06-07T18:36:08.114Z,6.33
2018-06-07T18:38:36.162Z,8.93
2018-06-07T18:41:05.170Z,6.43
2018-06-07T18:43:33.468Z,7.23
2018-06-07T18:46:01.792Z,6.30
2018-06-07T18:48:30.117Z,6.67
2018-06-07T18:50:58.463Z,5.70
2018-06-07T18:53:26.838Z,6.20
2018-06-07T18:55:55.124Z,6.30
2018-06-07T18:58:23.706Z,6.10
2018-06-07T19:00:52.242Z,5.67
2018-06-07T19:03:21.023Z,8.90
2018-06-07T19:05:49.951Z,14.30
2018-06-07T19:08:18.317Z,6.93
2018-06-07T19:10:47.262Z,7.47
2018-06-07T19:13:21.091Z,7.63
2018-06-07T19:15:49.418Z,6.70
2018-06-07T19:18:17.801Z,6.87
2018-06-07T19:20:51.622Z,7.67
2018-06-07T19:23:19.870Z,7.63
2018-06-07T19:25:53.650Z,6.40
2018-06-07T19:28:21.950Z,7.80
2018-06-07T19:30:50.190Z,5.30
2018-06-07T19:33:23.693Z,4.93
2018-06-07T19:35:52.053Z,6.13
2018-06-07T19:38:20.240Z,6.27
2018-06-07T19:40:54.046Z,6.07
2018-06-07T19:43:22.351Z,6.07
2018-06-07T19:45:50.640Z,8.63
2018-06-07T19:48:19.818Z,10.10
2018-06-07T19:50:48.422Z,7.93
2018-06-07T19:53:16.676Z,6.80
2018-06-07T19:55:44.958Z,6.93
2018-06-07T19:58:13.255Z,5.73
2018-06-07T20:00:41.521Z,8.13
2018-06-07T20:03:09.835Z,5.83
2018-06-07T20:05:38.192Z,7.30
2018-06-07T20:08:06.419Z,7.27
2018-06-07T20:10:34.787Z,4.87
2018-06-07T20:13:03.079Z,5.77
2018-06-07T20:15:31.343Z,6.17
2018-06-07T20:18:06.535Z,7.10
2018-06-07T20:20:34.801Z,5.70
2018-06-07T20:23:03.088Z,10.83
2018-06-07T20:25:31.324Z,5.90
2018-06-07T20:27:59.633Z,5.90
2018-06-07T20:30:27.890Z,6.30
2018-06-07T20:32:56.145Z,6.77
2018-06-07T20:35:24.366Z,6.13
2018-06-07T20:37:52.659Z,7.20
2018-06-07T20:40:20.789Z,6.27
2018-06-07T20:42:48.997Z,6.57
2018-06-07T20:45:17.259Z,6.40
2018-06-07T20:47:45.645Z,5.47
2018-06-07T20:50:13.939Z,6.27
2018-06-07T20:52:42.223Z,7.97
2018-06-07T20:55:10.463Z,7.47
2018-06-07T20:57:38.836Z,6.20
2018-06-07T21:00:07.666Z,6.30
2018-06-07T21:02:36.118Z,6.70
2018-06-07T21:05:04.408Z,6.37
2018-06-07T21:07:32.759Z,6.63
2018-06-07T21:10:01.108Z,7.20
2018-06-07T21:12:29.409Z,7.07
2018-06-07T21:14:57.695Z,6.80
2018-06-07T21:17:25.982Z,6.90
2018-06-07T21:19:54.266Z,8.83
2018-06-07T21:22:22.931Z,7.30
2018-06-07T21:24:51.212Z,7.73
2018-06-07T21:27:19.513Z,9.77
2018-06-07T21:29:47.782Z,8.53
2018-06-07T21:32:16.058Z,7.37
2018-06-07T21:34:44.290Z,8.40
2018-06-07T21:37:12.993Z,8.37
2018-06-07T21:39:41.261Z,7.33
2018-06-07T21:42:09.556Z,7.93
2018-06-07T21:44:37.906Z,7.27
2018-06-07T21:47:06.149Z,7.17
2018-06-07T21:49:35.173Z,8.30
2018-06-07T21:52:03.417Z,8.53
2018-06-07T21:54:31.742Z,7.80
2018-06-07T21:57:00.165Z,7.80
2018-06-07T21:59:29.224Z,8.53
2018-06-07T22:01:58.295Z,8.27
2018-06-07T22:04:26.550Z,8.53
2018-06-07T22:06:54.863Z,9.40
2018-06-07T22:09:23.490Z,7.80
2018-06-07T22:11:52.582Z,9.97
2018-06-07T22:14:20.980Z,10.33
2018-06-07T22:16:49.249Z,9.90
2018-06-07T22:19:17.273Z,7.73
2018-06-07T22:21:47.415Z,12.47
2018-06-07T22:24:15.714Z,11.07
2018-06-07T22:26:44.037Z,9.00
2018-06-07T22:29:12.665Z,9.93
2018-06-07T22:31:40.898Z,9.97
2018-06-07T22:34:15.587Z,10.57
2018-06-07T22:36:44.650Z,8.43
2018-06-07T22:39:13.245Z,9.83
2018-06-07T22:41:42.500Z,9.50
2018-06-07T22:44:11.282Z,8.87
2018-06-07T22:46:40.213Z,10.00
2018-06-07T22:49:09.253Z,9.00
2018-06-07T22:51:38.100Z,9.53
2018-06-07T22:54:06.455Z,10.43
2018-06-07T22:56:35.590Z,9.07
2018-06-07T22:59:04.506Z,9.90
2018-06-07T23:01:33.090Z,10.37
2018-06-07T23:04:01.468Z,7.83
2018-06-07T23:06:30.508Z,8.67
2018-06-07T23:08:59.039Z,10.80
2018-06-07T23:11:28.440Z,9.73
2018-06-07T23:13:56.915Z,10.90
2018-06-07T23:16:25.208Z,10.43
2018-06-07T23:18:53.462Z,10.30
2018-06-07T23:21:21.851Z,10.47
2018-06-07T23:23:50.220Z,10.40
2018-06-07T23:27:27.911Z,8.80
2018-06-07T23:29:56.326Z,9.10
2018-06-07T23:32:24.632Z,9.37
2018-06-07T23:34:53.044Z,9.67
2018-06-07T23:37:21.371Z,11.37
2018-06-07T23:39:49.608Z,11.70
2018-06-07T23:42:17.970Z,10.33
2018-06-07T23:44:46.138Z,11.90
2018-06-07T23:47:14.410Z,10.07
2018-06-07T23:49:42.691Z,11.10
2018-06-07T23:52:10.979Z,11.00
2018-06-07T23:54:39.211Z,10.07
2018-06-07T23:57:07.575Z,11.77
2018-06-07T23:59:35.914Z,11.57
